Cotter, AR (72626)

1:21 AM CST on December 06, 2016 (GMT -0600)
MC 7061 | | Change Station

Elev 673 ft 36.26 °N, 92.61 °W | Updated 2 seconds ago

Rain
Rain
41.4 °F
Feels Like 41 °F
N
1.1
Wind Variable Wind from SW
Gusts 2.5 mph

Today
High -- | Low -- °F
--% Chance of Precip.
Yesterday
High -- | Low -- °F
Precip. -- in
Pressure 29.71 in
Visibility 3.0 miles
Clouds Mostly Cloudy 500 ft
Mostly Cloudy 1100 ft
Overcast 4900 ft
Windchill 41 °F
Dew Point 41 °F
Humidity 99%
Rainfall 0.18 in
Snow Depth Not available.
7:07 AM 4:55 PM
Waxing Crescent, 39% visible
METAR KFLP 060715Z AUTO 00000KT 3SM BKN005 BKN011 OVC049 05/02 A2971 RMK AO1 P0006
Pressure 29.71 in
Visibility 3.0 miles
Clouds Mostly Cloudy 500 ft
Mostly Cloudy 1100 ft
Overcast 4900 ft
Windchill 41 °F
Dew Point 41 °F
Humidity 99%
Rainfall 0.18 in
Snow Depth Not available.
7:07 AM 4:55 PM
Waxing Crescent, 39% visible
METAR KFLP 060715Z AUTO 00000KT 3SM BKN005 BKN011 OVC049 05/02 A2971 RMK AO1 P0006

10-Day Weather Forecast

Almanac

Astronomy

Dec. 06, 2016 Rise Set
Actual Time
Civil Twilight
Nautical Twilight
Astronomical Twilight
Moon
Length of Visible Light
Length of Day
Tomorrow will be .
, % of the Moon is Illuminated

Today's Extremes

State Highs State Lows

Community

WunderPhotos

Upload Photos

1,955,930 photos uploaded!

WunderBlog® & News

Nearby

Air Quality

  Air Quality AQ Index Pollutant
Not available.

Snow Depth

Station Depth Elevation

Earthquake Activity

City Distance Mag. Time & Date
Minimum magnitude displayed is 2.5.

Coastal Water Temperatures

Place Temperature

Stations

Nearby Weather Stations

Station Location Temp. Windchill Dew Point Humidity Wind Precip. Elev Updated Type
                   

Watches & Warnings

There are currently no watches in effect.